Flight Track Log - Related Links

Times and Time Zones

All times are in EDT time to prevent confusion due to time zone crossing. See the N687MC flight status page for this flight to view local times or setup timezone preferences in your user account.

Time Position Orientation Groundspeed Altitude Reporting Facility
EDT Latitude Longitude Course Direction KTS MPH feet Rate Location/Type
Sun 07:07:15 PM 32.3593 -96.6498 324° Northwest  Level FlightAware Approximate
Sun 07:08:23 PM 32.4369 -96.7167 160° South 120 138 7,500  Level Fort Worth Center
Sun 07:09:23 PM 32.4033 -96.7022 157° South 127 146 7,500  Level Fort Worth Center
Sun 07:10:23 PM 32.3742 -96.6878 163° South 127 146 7,500  Level Fort Worth Center
Sun 07:11:23 PM 32.3406 -96.6758 160° South 121 139 7,500  Level Fort Worth Center
Sun 07:12:23 PM 32.3114 -96.6636 160° South 121 139 7,500  Level Fort Worth Center
Sun 07:13:23 PM 32.2778 -96.6492 165° South 126 145 7,500  Level Fort Worth Center
Sun 07:14:23 PM 32.2486 -96.6397 158° South 126 145 7,500  Level Fort Worth Center
Sun 07:15:23 PM 32.2131 -96.6228 160° South 126 145 7,500  Level Fort Worth Center
Sun 07:16:23 PM 32.1794 -96.6083 159° South 126 145 7,500  Level Fort Worth Center
Sun 07:17:23 PM 32.1481 -96.5939 161° South 126 145 7,500  Level Fort Worth Center
Sun 07:23:23 PM 31.9408 -96.5075 167° South 131 151 7,500  Level Fort Worth Center
Sun 07:24:23 PM 31.9053 -96.4981 162° South 126 145 7,500  Level Fort Worth Center
Sun 07:25:23 PM 31.8739 -96.4861 157° South 126 145 7,500  Level Fort Worth Center
Sun 07:26:23 PM 31.8403 -96.4694 162° South 126 145 7,500  Level Fort Worth Center
Sun 07:27:23 PM 31.8089 -96.4575 159° South 126 145 7,500  Level Fort Worth Center
Sun 07:28:23 PM 31.7775 -96.4431 162° South 126 145 7,500  Level Fort Worth Center
Sun 07:29:23 PM 31.7461 -96.4314 160° South 126 145 7,500  Level Fort Worth Center
Sun 07:30:23 PM 31.7189 -96.4194 170° South 126 145 7,500  Level Fort Worth Center
Sun 07:31:23 PM 31.6853 -96.4125 155° Southeast 126 145 7,500  Level Fort Worth Center
Sun 07:32:23 PM 31.6497 -96.3933 167° South 120 138 7,500  Level Fort Worth Center
Sun 07:33:23 PM 31.6161 -96.3839 157° South 121 139 7,500  Level Fort Worth Center
Sun 07:34:23 PM 31.5828 -96.3672 165° South 120 138 7,500  Level Fort Worth Center
Sun 07:35:23 PM 31.5533 -96.3578 162° South 125 144 7,500  Level Fort Worth Center
Sun 07:38:21 PM 31.4592 -96.3228 158° South 118 136 7,500  Level Houston Center
Sun 07:39:35 PM 31.4183 -96.3039 166° South 121 139 7,500  Level Houston Center
Sun 07:40:30 PM 31.3894 -96.2953 158° South 123 142 7,500  Level Houston Center
Sun 07:41:37 PM 31.3544 -96.2789 164° South 127 146 7,500  Level Houston Center
Sun 07:42:32 PM 31.3214 -96.2678 160° South 123 142 7,500  Level Houston Center
Sun 07:43:27 PM 31.2947 -96.2567 162° South 122 140 7,500  Level Houston Center
Sun 07:44:34 PM 31.2597 -96.2431 159° South 120 138 7,500  Level Houston Center
Sun 07:45:35 PM 31.2247 -96.2269 163° South 121 139 7,500  Level Houston Center
Sun 07:46:37 PM 31.1939 -96.2158 159° South 122 140 7,500  Level Houston Center
Sun 07:47:44 PM 31.1569 -96.1994 167° South 125 144 7,500  Level Houston Center
Sun 07:48:46 PM 31.1239 -96.1908 156° South 119 137 7,500  Level Houston Center
Sun 07:49:46 PM 31.0931 -96.1747 165° South 120 138 7,500  Level Houston Center
Sun 07:50:47 PM 31.0581 -96.1636 161° South 123 142 7,500  Level Houston Center
Sun 07:51:48 PM 31.0250 -96.1500 160° South 123 142 7,500  Level Houston Center
Sun 07:52:44 PM 30.9983 -96.1389 162° South 122 140 7,500  Level Houston Center
Sun 07:53:44 PM 30.9633 -96.1253 161° South 123 142 7,500  Level Houston Center
Sun 07:54:46 PM 30.9303 -96.1117 161° South 125 144 7,500  Level Houston Center
Sun 07:55:53 PM 30.8975 -96.0983 162° South 122 140 7,500  Level Houston Center
Sun 07:56:54 PM 30.8603 -96.0844 156° South 124 143 7,500 -103 Level Houston Center
Sun 07:57:49 PM 30.8297 -96.0686 166° South 129 148 7,300 -197 Descending Houston Center
Sun 07:58:56 PM 30.7925 -96.0575 161° South 134 154 7,100 -148 Descending Houston Center
Sun 07:59:51 PM 30.7594 -96.0439 164° South 127 146 7,000 -154 Descending Houston Center
Sun 08:00:53 PM 30.7264 -96.0328 159° South 129 148 6,800 -195 Descending Houston Center
Sun 08:01:54 PM 30.6894 -96.0167 165° South 129 148 6,600 -246 Descending Houston Center
Sun 08:02:55 PM 30.6544 -96.0056 164° South 128 147 6,300 -344 Descending Houston Center
Sun 08:03:56 PM 30.6214 -95.9944 150° Southeast 127 146 5,900 -344 Descending Houston Center
Sun 08:04:57 PM 30.5906 -95.9739 146° Southeast 128 147 5,600 -244 Descending Houston Center
Sun 08:05:59 PM 30.5581 -95.9483 161° South 130 150 5,400 -244 Descending Houston Center
Sun 08:07:00 PM 30.5231 -95.9347 166° South 133 153 5,100 -344 Descending Houston Center
Sun 08:08:01 PM 30.4858 -95.9236 169° South 134 154 4,700 -422 Descending Houston Center
Sun 08:09:08 PM 30.4464 -95.9147 168° South 132 152 4,200 -393 Descending Houston Center
Sun 08:10:03 PM 30.4114 -95.9061 152° Southeast 134 154 3,900 -362 Descending Houston Center
Sun 08:11:04 PM 30.3825 -95.8881 162° South 127 146 3,500 -393 Descending Houston Center
Sun 08:12:05 PM 30.3456 -95.8744 165° South 128 147 3,100 -390 Descending Houston Center
Sun 08:13:07 PM 30.3103 -95.8633 160° South 130 150 2,700 -410 Descending Houston Center
Sun 08:14:02 PM 30.2794 -95.8500 163° South 131 151 2,300 -344 Descending Houston Center
Sun 08:15:09 PM 30.2403 -95.8364 160° South 125 144 2,000 -141 Descending Houston Center
Sun 08:16:10 PM 30.2094 -95.8231 166° South 115 132 2,000  Level Houston Center
Sun 08:17:11 PM 30.1803 -95.8147 160° South 119 137 2,000  Level Houston Center
Sun 08:18:13 PM 30.1433 -95.7989 163° South 119 137 2,000 -97 Level Houston Center
Sun 08:19:15 PM 30.1122 -95.7881 159° South 125 144 1,800 -98 Descending Houston Center
Sun 08:20:16 PM 30.0814 -95.7747 159° South 119 137 1,800  Level Houston Center

Login

Don't have an account? Register now (free) for customized features, flight alerts, and more!